PASIPAKT

Guest
Details From PASI - SITKA ROCKY GUTIERREZ
To PAKT - KETCHIKAN INTL
Flight Number -
Tags decoded
Created
Modified
Stats Distance 173 nm / 320 km
Max Altitude 0 ft / 0 m
Waypoints 6
Social Downloads 1
Likes 0
Share VATSIM

Download

Looking for another format? Having issues loading an existing format? Contact us
Advertisement - Login to hide

Notes

Requested: PASI SIT TOKEE UDENE DOOZI PAKT

Route

PASI SIT TOKEE UDENE DOOZI PAKT

ID Type Via Altitude Latitude Longitude Leg Dist Tot Dist Heading (true) Name
O PASI APT - 0 ft / 0 m 57.04713˚ -135.36160˚ - 0 nm - SITKA ROCKY GUTIERREZ
SIT NDB - 0 ft / 0 m 56.85461˚ -135.53436˚ 12 nm 12 nm 206° / 206° SITKA NDB
TOKEE FIX - 0 ft / 0 m 55.91250˚ -133.37881˚ 91 nm 104 nm 127° / 129° -
UDENE FIX - 0 ft / 0 m 55.69184˚ -132.89956˚ 20 nm 125 nm 129° / 130° -
DOOZI FIX - 0 ft / 0 m 55.63254˚ -132.17465˚ 24 nm 149 nm 98° / 99° -
O PAKT APT - 0 ft / 0 m 55.35554˚ -131.71374˚ 22 nm 172 nm 137° / 137° KETCHIKAN INTL

Altitude Profile

Advertisement - Login to hide

Weather


0- 5 10 15 20 25 30 35+ Temperature / ° C

Clouds and Precipitation
Forecast for 2018-05-23 06:00 UTC. Updated 2 hours ago

Ground ~20,000 ft ~40,000 ft Winds

PASI

Details ICAO PASI (SIT)
Name SITKA ROCKY GUTIERREZ
Region USA (Alaska)
Timezone America/Juneau (UTC-8.0)
Stats Elevation 21 ft / 6 m (AMSL)
Location 57.047128° -135.361597°
Runways 1
Magnetic Variation 18.633° E

METAR

PASI 230653Z 00000KT 10SM BKN038 08/06 A2994

Decode

TAF

PASI 230540Z 2306/2406 VRB03KT P6SM BKN040 FM231900 26008KT P6SM BKN050

Decode

Departure Runways

ID Width Length Bearing (true) Bearing (mag) Surface Threshold Offset Overrun Length
11 150 ft / 46 m 6,485 ft / 1,977 m 135.57° 116.94° Asphalt 0 ft / 0 m 0 ft / 0 m
29 150 ft / 46 m 6,485 ft / 1,977 m 315.59° 296.96° Asphalt 0 ft / 0 m 0 ft / 0 m

PAKT

Details ICAO PAKT (KTN)
Name KETCHIKAN INTL
Region USA (Alaska)
Timezone Unknown (UTC+0.0)
Stats Elevation 88 ft / 27 m (AMSL)
Location 55.355545° -131.713737°
Runways 1
Magnetic Variation 18.429° E

METAR

PAKT 230653Z AUTO 32004KT 6SM BR SCT003 BKN022 OVC028 09/09 A2994

Decode

TAF

PAKT 230540Z 2306/2406 33005KT 6SM BR VCSH SCT004 SCT025 OVC035 TEMPO 2306/2309 00000KT 3SM BR BKN004 OVC010 FM230900 32003KT 3SM BR VCSH BKN004 OVC025 FM231800 VRB05KT P6SM FEW010 BKN035 AMD LTD TO CLD VIS AND WIND TIL 231500

Decode

Destination Runways

ID Width Length Bearing (true) Bearing (mag) Surface Threshold Offset Overrun Length
11 150 ft / 46 m 7,485 ft / 2,281 m 135.66° 117.23° Asphalt 0 ft / 0 m 200 ft / 61 m
29 150 ft / 46 m 7,485 ft / 2,281 m 315.68° 297.25° Asphalt 0 ft / 0 m 100 ft / 30 m

Approach Navaids

Runway Type Ident Frequency Range Bearing (true) Bearing (mag) Slope Elevation
11 Localiser IECH 109.30 MHz 18 nm / 33 km 135.69° 117.26° - 66 ft / 20 m (AMSL)
11 Glidescope IECH 109.30 MHz 10 nm / 19 km 135.67° 117.24° 3.61° 76 ft / 23 m (AMSL)
11 DME IECH 109.30 MHz 18 nm / 33 km - - - 98 ft / 30 m (AMSL)

Popular Alternatives